Appleton, Washington
Current Conditions -  °F | °C
As of 1:53 PM on Monday 20 Oct 2014 (Local Time) from KDLS Reporting Station
Overcast Overcast  
Wind Chill: 59°   Ceiling: 8000
Heat Index: 59°   Visibility: 10mi
Dew Point: 55°   Wind: 9mph
Humidity: 87%   Direction: 280°W
Pressure: 29.79"   Gusts: NA
Location:  45.81°N, 121.27°W
Report Text: KDLS 202053Z AUTO 28008KT 10SM OVC080 15/13 A2979 RMK AO2 RAE39 SLP088 P0002 60003 T01500128 50006
Loading
Personal Weather Stations






























Interactive Weather Map
Tropical Storm Tracking
New forecast layout! Learn more

10-Day Weather Forecast

Advertisements
Track Severe Weather on mobile